Hart, TX

9:29 AM CST on January 16, 2017 (GMT -0600)
MHAST2 | | Change Station

Elev 3689 ft 34.42 °N, 102.11 °W | Updated 2 minutes ago

Partly Cloudy
Partly Cloudy
32.0 °F
Feels Like 25 °F
N
8.0
Wind Variable Wind from WNW
Gusts 9.0 mph

Today
High -- | Low -- °F
--% Chance of Precip.
Yesterday
High -- | Low -- °F
Precip. -- in
Pressure 29.94 in
Visibility 10.0 miles
Clouds Clear
Windchill 25 °F
Dew Point 31 °F
Humidity 100%
Rainfall 0.56 in
Snow Depth Not available.
7:54 AM 6:02 PM
Waning Gibbous, 80% visible
METAR KPVW 161515Z AUTO 29006KT 10SM CLR 00/00 A2994 RMK AO2 T00001001
Pressure 29.94 in
Visibility 10.0 miles
Clouds Clear
Windchill 25 °F
Dew Point 31 °F
Humidity 100%
Rainfall 0.56 in
Snow Depth Not available.
7:54 AM 6:02 PM
Waning Gibbous, 80% visible
METAR KPVW 161515Z AUTO 29006KT 10SM CLR 00/00 A2994 RMK AO2 T00001001

Get Your Daily Forecast Email!

Thanks for signing up!

Be on the lookout for a verification email in your inbox.

You'll start receiving the daily forecast at 8 AM.

×

10-Day Weather Forecast

Almanac

Astronomy

Jan. 16, 2017 Rise Set
Actual Time
Civil Twilight
Nautical Twilight
Astronomical Twilight
Moon
Length of Visible Light
Length of Day
Tomorrow will be .
, % of the Moon is Illuminated

Today's Extremes

State Highs State Lows

Community

WunderPhotos

Upload Photos

1,962,540 photos uploaded!

WunderBlog® & News

Nearby

Air Quality

  Air Quality AQ Index Pollutant
Not available.

Snow Depth

Station Depth Elevation

Earthquake Activity

City Distance Mag. Time & Date
Minimum magnitude displayed is 2.5.

Coastal Water Temperatures

Place Temperature

Stations

Nearby Weather Stations

Station Location Temp. Windchill Dew Point Humidity Wind Precip. Elev Updated Type
                   

Watches & Warnings

There are currently no watches in effect.